SKLT/LET METAR and TAF weather

Enter ICAO airport designator
Station Type Date Time Source
SKLT METAR 2019/10/14 05:00 UTC NOAA

SKLT 140500Z VRB02KT 9999 SCT013 OVC080 23/23 A2988


Station Type Date Time Source
SKLT Decoded METAR 2019/10/14 05:00 UTC NOAA

Leticia / Vasquez Cobo, Colombia (SKLT) 04-10S 069-57W 84M
Oct 14, 2019 - 01:00 AM EDT / 2019.10.14 0500 UTC
Wind: Variable at 2 MPH (2 KT):0
Visibility: greater than 7 mile(s):0
Sky conditions: overcast
Temperature: 73 F (23 C)
Dew Point: 73 F (23 C)
Relative Humidity: 100%
Pressure (altimeter): 29.88 in. Hg (1011 hPa)
ob: SKLT 140500Z VRB02KT 9999 SCT013 OVC080 23/23 A2988
cycle: 5

Station Type Date Time Source
SKLT TAF 2019/10/14 06:41 UTC NOAA

TAF SKLT 140430Z 1406/1506 VRB02KT 9999 SCT015 SCT090
TEMPO 1406/1408 7000 RA SCT013CB
TEMPO 1409/1413 3000 BCFG RA SCT010
BECMG 1412/1414 23010KT
TEMPO 1419/1422 5000 TSRA SCT015CB TX32/1418Z TN22/1411Z

Example: see airport list